Time;durP1;ratioP1;P1;durP2;ratioP2;P2;SDS_P1;SDS_P2;PMS_P1;PMS_P2;Temp;Humidity;BMP_temperature;BMP_pressure;BME280_temperature;BME280_humidity;BME280_pressure;Samples;Min_cycle;Max_cycle;Signal;HPM_P1;HPM_P2
2022/05/26 00:01:56;;;;;;;0.52;0.52;;;23.90;42.60;;;-147.20;100.00;58430.41;5092688;28;20078;-19
2022/05/26 00:04:21;;;;;;;0.52;0.52;;;23.90;42.70;;;-147.20;100.00;58430.41;5092013;28;20048;-19
2022/05/26 00:06:47;;;;;;;0.70;0.55;;;23.90;42.70;;;-147.20;100.00;58430.41;5092013;28;20051;-18
2022/05/26 00:09:15;;;;;;;0.50;0.50;;;23.90;42.70;;;-147.20;100.00;58430.41;5092004;28;20046;-19
2022/05/26 00:11:41;;;;;;;0.60;0.60;;;23.90;42.60;;;-147.20;100.00;58430.41;5091986;28;20097;-19
2022/05/26 00:14:10;;;;;;;0.50;0.50;;;23.90;42.70;;;-147.20;100.00;58430.41;5091728;28;20044;-19
2022/05/26 00:16:43;;;;;;;0.60;0.60;;;23.90;42.70;;;-147.20;100.00;58430.41;5091540;28;20052;-18
2022/05/26 00:19:15;;;;;;;0.60;0.60;;;23.90;42.70;;;-147.20;100.00;58430.41;5094750;28;20060;-19
2022/05/26 00:21:41;;;;;;;;;;;23.90;42.70;;;-147.20;100.00;58430.41;5095910;28;20052;-19
2022/05/26 00:24:07;;;;;;;0.47;0.47;;;23.90;42.70;;;-147.20;100.00;58430.41;5095430;28;19969;-18
2022/05/26 00:26:33;;;;;;;0.70;0.70;;;23.90;42.60;;;-147.20;100.00;58430.41;5095078;28;20052;-19
2022/05/26 00:28:59;;;;;;;0.50;0.50;;;23.90;42.70;;;-147.20;100.00;58430.41;5094999;28;20059;-19
2022/05/26 00:31:25;;;;;;;0.70;0.70;;;23.90;42.70;;;-147.20;100.00;58430.41;5094975;28;20554;-19
2022/05/26 00:33:51;;;;;;;0.70;0.70;;;23.90;42.70;;;-147.20;100.00;58430.41;5094914;28;20047;-19
2022/05/26 00:36:37;;;;;;;0.60;0.60;;;23.90;42.70;;;-147.20;100.00;58430.41;5095356;28;20051;-19
2022/05/26 00:39:27;;;;;;;0.85;0.55;;;23.90;42.70;;;-147.20;100.00;58430.41;5095214;28;20048;-19
2022/05/26 00:41:58;;;;;;;0.50;0.50;;;23.90;42.70;;;-147.20;100.00;58430.41;5081784;28;20048;-18
2022/05/26 00:44:25;;;;;;;0.65;0.65;;;23.90;42.70;;;-147.20;100.00;58430.41;5095354;28;20048;-18
2022/05/26 00:47:23;;;;;;;0.47;0.47;;;23.90;42.70;;;-147.20;100.00;58430.41;5074647;28;20508;-19
2022/05/26 00:50:07;;;;;;;0.50;0.40;;;23.90;42.70;;;-147.20;100.00;58430.41;5077139;28;20437;-18
2022/05/26 00:52:50;;;;;;;0.60;0.60;;;23.80;42.60;;;-147.20;100.00;58430.41;5077064;28;20048;-19
2022/05/26 00:55:27;;;;;;;0.50;0.50;;;23.80;42.60;;;-147.20;100.00;58430.41;5075888;28;20132;-18
2022/05/26 00:58:02;;;;;;;0.60;0.60;;;23.80;42.60;;;-147.20;100.00;58430.41;5094836;28;20406;-18
2022/05/26 01:00:34;;;;;;;0.63;0.63;;;23.80;42.60;;;-147.20;100.00;58430.41;5075674;28;20044;-18
2022/05/26 01:03:24;;;;;;;0.85;0.70;;;23.90;42.70;;;-147.20;100.00;58430.41;5094666;28;20456;-19
2022/05/26 01:05:54;;;;;;;0.80;0.60;;;23.80;42.70;;;-147.20;100.00;58430.41;5094598;28;20495;-19
2022/05/26 01:08:28;;;;;;;0.50;0.50;;;23.80;42.70;;;-147.20;100.00;58430.41;5095002;28;20123;-19
2022/05/26 01:10:54;;;;;;;0.50;0.50;;;23.90;42.70;;;-147.20;100.00;58430.41;5094936;28;20055;-18
2022/05/26 01:13:21;;;;;;;0.50;0.50;;;23.80;42.70;;;-147.20;100.00;58430.41;5095120;28;20050;-19
2022/05/26 01:15:56;;;;;;;0.60;0.60;;;23.80;42.60;;;-147.20;100.00;58430.41;5094292;28;20055;-18
2022/05/26 01:18:56;;;;;;;0.60;0.60;;;23.80;42.60;;;-147.20;100.00;58430.41;5076761;28;20044;-19
2022/05/26 01:21:48;;;;;;;0.70;0.68;;;23.80;42.70;;;-147.20;100.00;58430.41;5094184;28;20488;-18
2022/05/26 01:24:59;;;;;;;0.82;0.80;;;23.80;42.60;;;-147.20;100.00;58430.41;5094671;28;20044;-18
2022/05/26 01:27:37;;;;;;;;;;;23.80;42.60;;;-147.20;100.00;58430.41;5076669;28;20095;-19
2022/05/26 01:30:25;;;;;;;0.50;0.50;;;23.80;42.70;;;-147.20;100.00;58430.41;5073696;28;19942;-19
2022/05/26 01:33:42;;;;;;;0.40;0.40;;;23.80;42.60;;;-147.20;100.00;58430.41;5093134;28;20105;-20
2022/05/26 01:36:29;;;;;;;0.50;0.50;;;23.80;42.60;;;-147.20;100.00;58430.41;4976180;28;20565;-19
2022/05/26 01:39:16;;;;;;;0.55;0.50;;;23.80;42.70;;;-147.20;100.00;58430.41;5092867;28;20473;-18
2022/05/26 01:42:19;;;;;;;0.73;0.60;;;23.80;42.70;;;-147.20;100.00;58430.41;5093288;28;20054;-18
2022/05/26 01:45:08;;;;;;;0.60;0.60;;;23.80;42.60;;;-147.20;100.00;58430.41;5094098;28;20564;-18
2022/05/26 01:48:06;;;;;;;0.60;0.60;;;23.80;42.70;;;-147.20;100.00;58430.41;5075953;28;20080;-19
2022/05/26 01:51:04;;;;;;;0.65;0.30;;;23.80;42.60;;;-147.20;100.00;58430.41;5076031;28;20058;-19
2022/05/26 01:53:59;;;;;;;0.50;0.50;;;23.80;42.70;;;-147.20;100.00;58430.41;5075733;28;20055;-19
2022/05/26 01:56:44;;;;;;;0.60;0.60;;;23.80;42.70;;;-147.20;100.00;58430.41;5074630;28;20148;-19
2022/05/26 01:59:19;;;;;;;0.50;0.50;;;23.80;42.70;;;-147.20;100.00;58430.41;5093945;28;20044;-19
2022/05/26 02:01:53;;;;;;;0.70;0.70;;;23.80;42.70;;;-147.20;100.00;58430.41;5075998;28;20048;-19
2022/05/26 02:04:31;;;;;;;0.60;0.50;;;23.80;42.70;;;-147.20;100.00;58430.41;5073856;28;20040;-18
2022/05/26 02:07:21;;;;;;;1.38;0.57;;;23.80;42.60;;;-147.20;100.00;58430.41;5074683;28;20143;-18
2022/05/26 02:09:49;;;;;;;0.60;0.60;;;23.80;42.70;;;-147.20;100.00;58430.41;5075593;28;20484;-19
2022/05/26 02:12:27;;;;;;;0.75;0.70;;;23.80;42.60;;;-147.20;100.00;58430.41;5094205;28;20078;-19
2022/05/26 02:15:07;;;;;;;1.38;0.50;;;23.80;43.20;;;-147.20;100.00;58430.41;5075668;28;20541;-19
2022/05/26 02:17:40;;;;;;;0.50;0.50;;;23.80;42.70;;;-147.20;100.00;58430.41;5075333;28;20040;-19
2022/05/26 02:20:14;;;;;;;0.60;0.60;;;23.80;42.70;;;-147.20;100.00;58430.41;5073839;28;20135;-19
2022/05/26 02:22:49;;;;;;;0.52;0.50;;;23.80;42.70;;;-147.20;100.00;58430.41;5075493;28;20503;-18
2022/05/26 02:25:22;;;;;;;0.55;0.50;;;23.80;42.70;;;-147.20;100.00;58430.41;5075461;28;20056;-18
2022/05/26 02:27:53;;;;;;;0.55;0.55;;;23.80;42.70;;;-147.20;100.00;58430.41;5093291;28;20048;-18
2022/05/26 02:30:22;;;;;;;0.50;0.50;;;23.80;42.70;;;-147.20;100.00;58430.41;5093393;28;20043;-19
2022/05/26 02:32:50;;;;;;;0.60;0.60;;;23.80;42.70;;;-147.20;100.00;58430.41;5075188;28;20056;-19
2022/05/26 02:35:30;;;;;;;0.70;0.70;;;23.80;42.70;;;-147.20;100.00;58430.41;5075131;28;20083;-19
2022/05/26 02:38:14;;;;;;;0.60;0.60;;;23.80;42.70;;;-147.20;100.00;58430.41;5093538;28;20048;-19
2022/05/26 02:40:42;;;;;;;0.68;0.68;;;23.80;42.70;;;-147.20;100.00;58430.41;5075206;28;20147;-19
2022/05/26 02:43:21;;;;;;;0.60;0.57;;;23.80;42.70;;;-147.20;100.00;58430.41;5093181;28;20127;-19
2022/05/26 02:46:53;;;;;;;0.50;0.50;;;23.80;42.70;;;-147.20;100.00;58430.41;5093108;28;20063;-19
2022/05/26 02:49:54;;;;;;;0.50;0.50;;;23.80;42.70;;;-147.20;100.00;58430.41;5050685;28;20056;-19
2022/05/26 02:52:32;;;;;;;0.50;0.50;;;23.80;42.70;;;-147.20;100.00;58430.41;5093386;28;20138;-18
2022/05/26 02:55:17;;;;;;;0.52;0.50;;;23.80;42.60;;;-147.20;100.00;58430.41;5073420;28;20049;-19
2022/05/26 02:58:08;;;;;;;0.50;0.50;;;23.80;42.60;;;-147.20;100.00;58430.41;5092814;28;20085;-19
2022/05/26 03:00:48;;;;;;;0.40;0.40;;;23.80;42.70;;;-147.20;100.00;58430.41;5092926;28;20181;-19
2022/05/26 03:03:27;;;;;;;1.20;0.80;;;23.80;42.60;;;-147.20;100.00;58430.41;5075104;28;20129;-18
2022/05/26 03:06:06;;;;;;;0.60;0.60;;;23.80;42.70;;;-147.20;100.00;58430.41;5075023;28;20446;-18
2022/05/26 03:08:39;;;;;;;0.50;0.50;;;23.80;42.70;;;-147.20;100.00;58430.41;5092804;28;20472;-19
2022/05/26 03:11:12;;;;;;;0.50;0.50;;;23.80;42.70;;;-147.20;100.00;58430.41;5075057;28;20418;-18
2022/05/26 03:13:38;;;;;;;0.50;0.50;;;23.80;42.70;;;-147.20;100.00;58430.41;5093073;28;20052;-20
2022/05/26 03:16:06;;;;;;;0.57;0.57;;;23.80;42.70;;;-147.20;100.00;58430.41;5092935;28;20545;-18
2022/05/26 03:18:32;;;;;;;0.55;0.55;;;23.70;42.60;;;-147.20;100.00;58430.41;5074331;28;20416;-18
2022/05/26 03:21:04;;;;;;;0.45;0.45;;;23.70;42.60;;;-147.20;100.00;58430.41;5092722;28;20142;-19
2022/05/26 03:23:29;;;;;;;;;;;23.70;42.60;;;-147.20;100.00;58430.41;5093717;28;20060;-19
2022/05/26 03:25:57;;;;;;;0.50;0.50;;;23.80;42.70;;;-147.20;100.00;58430.41;5093132;28;19961;-18
2022/05/26 03:28:28;;;;;;;0.60;0.60;;;23.80;42.60;;;-147.20;100.00;58430.41;5092301;28;20062;-19
2022/05/26 03:30:54;;;;;;;0.60;0.52;;;23.80;42.70;;;-147.20;100.00;58430.41;5093062;28;20052;-18
2022/05/26 03:33:20;;;;;;;0.50;0.50;;;23.80;42.70;;;-147.20;100.00;58430.41;5092536;28;20040;-19
2022/05/26 03:41:19;;;;;;;0.50;0.50;;;23.70;42.60;;;-147.20;100.00;58430.41;5092735;28;20036;-19
2022/05/26 03:43:50;;;;;;;0.60;0.60;;;23.70;42.60;;;-147.20;100.00;58430.41;5092479;28;20131;-19
2022/05/26 03:46:15;;;;;;;0.50;0.50;;;23.70;42.60;;;-147.20;100.00;58430.41;5072076;28;20052;-18
2022/05/26 03:48:41;;;;;;;0.50;0.50;;;23.70;42.60;;;-147.20;100.00;58430.41;5092192;28;20118;-19
2022/05/26 03:51:08;;;;;;;0.60;0.60;;;23.70;42.60;;;-147.20;100.00;58430.41;5092560;28;20044;-19
2022/05/26 03:53:34;;;;;;;0.50;0.50;;;23.70;42.60;;;-147.20;100.00;58430.41;5094379;28;20044;-18
2022/05/26 03:56:01;;;;;;;0.57;0.57;;;23.70;42.60;;;-147.20;100.00;58430.41;5095867;28;20496;-18
2022/05/26 03:58:27;;;;;;;0.47;0.47;;;23.80;42.60;;;-147.20;100.00;58430.41;5095888;28;20470;-18
2022/05/26 04:00:53;;;;;;;0.50;0.50;;;23.70;42.60;;;-147.20;100.00;58430.41;5095697;28;20048;-19
2022/05/26 04:03:18;;;;;;;0.73;0.60;;;23.80;42.60;;;-147.20;100.00;58430.41;5095738;28;20048;-18
2022/05/26 04:05:44;;;;;;;0.40;0.40;;;23.70;42.60;;;-147.20;100.00;58430.41;5095523;28;20149;-18
2022/05/26 04:08:10;;;;;;;0.60;0.60;;;23.70;42.60;;;-147.20;100.00;58430.41;5095513;28;20044;-19
2022/05/26 04:10:36;;;;;;;0.60;0.60;;;23.80;42.70;;;-147.20;100.00;58430.41;5095863;28;20488;-19
2022/05/26 04:13:03;;;;;;;0.50;0.50;;;23.70;42.60;;;-147.20;100.00;58430.41;5095983;28;20093;-19
2022/05/26 04:15:28;;;;;;;0.43;0.43;;;23.70;42.60;;;-147.20;100.00;58430.41;5095438;28;20044;-19
2022/05/26 04:17:54;;;;;;;0.50;0.50;;;23.70;42.60;;;-147.20;100.00;58430.41;5096034;28;20047;-20
2022/05/26 04:20:23;;;;;;;0.57;0.57;;;23.70;42.60;;;-147.20;100.00;58430.41;5095383;28;20188;-19
2022/05/26 04:22:49;;;;;;;0.40;0.40;;;23.70;42.60;;;-147.20;100.00;58430.41;5095383;28;20121;-19
2022/05/26 04:25:17;;;;;;;0.50;0.50;;;23.70;42.60;;;-147.20;100.00;58430.41;5095312;28;20541;-18
2022/05/26 04:27:43;;;;;;;0.52;0.50;;;23.70;42.60;;;-147.20;100.00;58430.41;5095350;28;20040;-19
2022/05/26 04:30:11;;;;;;;0.60;0.40;;;23.80;42.60;;;-147.20;100.00;58430.41;5095540;28;20040;-19
2022/05/26 04:32:39;;;;;;;0.70;0.70;;;23.80;43.10;;;-147.20;100.00;58430.41;5095812;28;20048;-19
2022/05/26 04:35:05;;;;;;;0.70;0.70;;;23.70;42.50;;;-147.20;100.00;58430.41;5095088;28;20476;-19
2022/05/26 04:37:31;;;;;;;0.47;0.47;;;23.70;42.50;;;-147.20;100.00;58430.41;5094949;28;20450;-19
2022/05/26 04:39:58;;;;;;;0.40;0.40;;;23.70;42.50;;;-147.20;100.00;58430.41;5095021;28;20101;-19
2022/05/26 04:42:25;;;;;;;0.50;0.50;;;23.70;42.50;;;-147.20;100.00;58430.41;5095114;28;20118;-18
2022/05/26 04:44:51;;;;;;;0.73;0.60;;;23.70;42.50;;;-147.20;100.00;58430.41;5095007;28;20048;-19
2022/05/26 04:47:18;;;;;;;0.50;0.50;;;23.80;42.60;;;-147.20;100.00;58430.41;5094625;28;20105;-19
2022/05/26 04:49:44;;;;;;;0.80;0.55;;;23.80;42.50;;;-147.20;100.00;58430.41;5094961;28;20052;-18
2022/05/26 04:52:17;;;;;;;1.00;0.60;;;23.80;42.50;;;-147.20;100.00;58430.41;5095141;28;20048;-18
2022/05/26 04:54:44;;;;;;;0.50;0.40;;;23.80;42.50;;;-147.20;100.00;58430.41;5077270;28;20144;-19
2022/05/26 04:57:11;;;;;;;0.77;0.50;;;23.80;42.50;;;-147.20;100.00;58430.41;5094643;28;20086;-19
2022/05/26 04:59:38;;;;;;;0.50;0.50;;;23.90;42.50;;;-147.20;100.00;58430.41;5095296;28;20076;-19
2022/05/26 05:02:04;;;;;;;0.60;0.60;;;23.80;42.40;;;-147.20;100.00;58430.41;5094759;28;20567;-18
2022/05/26 05:04:31;;;;;;;0.55;0.55;;;23.80;42.30;;;-147.20;100.00;58430.41;5093262;28;20075;-19
2022/05/26 05:06:57;;;;;;;0.60;0.60;;;23.90;42.40;;;-147.20;100.00;58430.41;5076610;28;20453;-19
2022/05/26 05:09:24;;;;;;;0.50;0.50;;;23.90;42.30;;;-147.20;100.00;58430.41;5094644;28;20093;-19
2022/05/26 05:11:50;;;;;;;0.60;0.60;;;23.90;42.30;;;-147.20;100.00;58430.41;5094827;28;20047;-18
2022/05/26 05:14:16;;;;;;;0.80;0.60;;;23.90;42.20;;;-147.20;100.00;58430.41;5094535;28;20388;-18
2022/05/26 05:16:43;;;;;;;0.60;0.50;;;24.00;42.10;;;-147.20;100.00;58430.41;5094507;28;20048;-18
2022/05/26 05:19:12;;;;;;;0.55;0.55;;;24.10;42.10;;;-147.20;100.00;58430.41;5094281;28;20116;-19
2022/05/26 05:21:54;;;;;;;0.40;0.40;;;24.10;42.60;;;-147.20;100.00;58430.41;5094049;28;20054;-18
2022/05/26 05:24:27;;;;;;;0.40;0.40;;;24.10;42.00;;;-147.20;100.00;58430.41;5094685;28;20048;-18
2022/05/26 05:26:59;;;;;;;0.50;0.50;;;24.10;42.00;;;-147.20;100.00;58430.41;5075809;28;20052;-18
2022/05/26 05:29:31;;;;;;;0.70;0.70;;;24.10;42.00;;;-147.20;100.00;58430.41;5094453;28;20485;-18
2022/05/26 05:32:07;;;;;;;0.50;0.50;;;24.10;41.90;;;-147.20;100.00;58430.41;5094652;28;20044;-19
2022/05/26 05:34:42;;;;;;;0.50;0.50;;;24.20;41.90;;;-147.20;100.00;58430.41;5094231;28;20503;-19
2022/05/26 05:37:08;;;;;;;0.50;0.50;;;24.20;41.90;;;-147.20;100.00;58430.41;5094810;28;20159;-19
2022/05/26 05:39:34;;;;;;;0.47;0.47;;;24.20;41.80;;;-147.20;100.00;58430.41;5094114;28;20113;-19
2022/05/26 05:42:00;;;;;;;0.40;0.40;;;24.20;42.30;;;-147.20;100.00;58430.41;5076209;28;20090;-19
2022/05/26 05:44:27;;;;;;;0.43;0.43;;;24.30;41.70;;;-147.20;100.00;58430.41;5094144;28;20040;-19
2022/05/26 05:46:53;;;;;;;0.50;0.50;;;24.30;41.70;;;-147.20;100.00;58430.41;5075814;28;20055;-19
2022/05/26 05:49:22;;;;;;;0.55;0.50;;;24.30;41.70;;;-147.20;100.00;58430.41;5094203;28;20043;-19
2022/05/26 05:51:48;;;;;;;0.50;0.50;;;24.40;41.60;;;-147.20;100.00;58430.41;5094286;28;20443;-19
2022/05/26 05:54:18;;;;;;;0.52;0.52;;;24.40;41.50;;;-147.20;100.00;58430.41;5093923;28;20412;-18
2022/05/26 05:56:48;;;;;;;0.50;0.50;;;24.50;41.50;;;-147.20;100.00;58430.41;5093828;28;20527;-19
2022/05/26 05:59:14;;;;;;;0.60;0.50;;;24.50;41.40;;;-147.20;100.00;58430.41;5093952;28;20101;-18
2022/05/26 06:01:40;;;;;;;0.40;0.40;;;24.60;41.30;;;-147.20;100.00;58430.41;5093850;28;20059;-19
2022/05/26 06:04:06;;;;;;;0.55;0.55;;;24.60;41.10;;;-147.20;100.00;58430.41;5093696;28;20044;-18
2022/05/26 06:06:38;;;;;;;0.50;0.50;;;24.70;41.10;;;-147.20;100.00;58430.41;5093569;28;20412;-18
2022/05/26 06:09:04;;;;;;;0.55;0.55;;;24.70;41.10;;;-147.20;100.00;58430.41;5093582;28;20044;-18
2022/05/26 06:11:31;;;;;;;0.55;0.50;;;24.70;41.00;;;-147.20;100.00;58430.41;5093384;28;20109;-18
2022/05/26 06:13:57;;;;;;;0.60;0.60;;;24.80;41.00;;;-147.20;100.00;58430.41;5093424;28;20055;-18
2022/05/26 06:16:24;;;;;;;0.52;0.52;;;24.80;40.90;;;-147.20;100.00;58430.41;5093007;28;20058;-19
2022/05/26 06:18:50;;;;;;;0.43;0.43;;;24.90;40.90;;;-147.20;100.00;58430.41;5093284;28;20963;-20
2022/05/26 06:21:16;;;;;;;0.50;0.50;;;24.90;40.80;;;-147.20;100.00;58430.41;5093361;28;20052;-18
2022/05/26 06:23:42;;;;;;;0.40;0.40;;;24.90;40.70;;;-147.20;100.00;58430.41;5093301;28;20557;-19
2022/05/26 06:26:08;;;;;;;0.50;0.50;;;25.00;40.80;;;-147.20;100.00;58430.41;5093380;28;20055;-20
2022/05/26 06:31:20;;;;;;;0.43;0.43;;;24.90;40.70;;;-147.20;100.00;58430.41;5093522;28;20054;-19
2022/05/26 06:39:16;;;;;;;0.55;0.55;;;24.90;40.80;;;-147.20;100.00;58430.41;5089466;28;20123;-19
2022/05/26 06:44:25;;;;;;;0.88;0.70;;;25.00;40.70;;;-147.20;100.00;58430.41;5093300;28;20131;-19
2022/05/26 06:46:51;;;;;;;0.45;0.40;;;25.10;40.60;;;-147.20;100.00;58430.41;5092855;28;20092;-19
2022/05/26 06:49:18;;;;;;;0.50;0.50;;;25.10;40.50;;;-147.20;100.00;58430.41;5093380;28;20059;-18
2022/05/26 06:51:45;;;;;;;0.70;0.70;;;25.20;40.50;;;-147.20;100.00;58430.41;5093437;28;20076;-19
2022/05/26 06:54:11;;;;;;;0.50;0.50;;;25.10;40.50;;;-147.20;100.00;58430.41;5093328;28;20087;-18
2022/05/26 06:56:38;;;;;;;0.40;0.40;;;25.10;40.60;;;-147.20;100.00;58430.41;5092662;28;20112;-17
2022/05/26 06:59:03;;;;;;;0.40;0.40;;;25.00;40.60;;;-147.20;100.00;58430.41;5072673;28;20404;-19
2022/05/26 07:01:29;;;;;;;0.40;0.40;;;25.00;40.80;;;-147.20;100.00;58430.41;5093349;28;20056;-18
2022/05/26 07:03:55;;;;;;;0.45;0.45;;;24.90;40.80;;;-147.20;100.00;58430.41;5092765;28;20481;-19
2022/05/26 07:06:27;;;;;;;0.40;0.40;;;24.90;40.90;;;-147.20;100.00;58430.41;5092914;28;20080;-19
2022/05/26 07:08:53;;;;;;;0.50;0.50;;;24.90;40.90;;;-147.20;100.00;58430.41;5093154;28;20048;-18
2022/05/26 07:11:20;;;;;;;0.57;0.47;;;24.90;40.80;;;-147.20;100.00;58430.41;5092789;28;20069;-18
2022/05/26 07:13:46;;;;;;;0.57;0.50;;;25.00;40.60;;;-147.20;100.00;58430.41;5092667;28;20496;-19
2022/05/26 07:16:13;;;;;;;0.70;0.70;;;25.20;40.60;;;-147.20;100.00;58430.41;5092718;28;20044;-18
2022/05/26 07:18:40;;;;;;;0.60;0.60;;;25.20;40.40;;;-147.20;100.00;58430.41;5092852;28;20055;-19
2022/05/26 07:21:08;;;;;;;0.57;0.57;;;25.30;40.30;;;-147.20;100.00;58430.41;5092642;28;20135;-19
2022/05/26 07:23:34;;;;;;;0.52;0.52;;;25.30;40.30;;;-147.20;100.00;58430.41;5092659;28;20093;-18
2022/05/26 07:26:05;;;;;;;0.50;0.50;;;25.20;40.40;;;-147.20;100.00;58430.41;5092527;28;20047;-19
2022/05/26 07:28:36;;;;;;;0.45;0.45;;;25.20;40.50;;;-147.20;100.00;58430.41;5094941;28;20055;-19
2022/05/26 07:31:02;;;;;;;0.50;0.50;;;25.20;40.40;;;-147.20;100.00;58430.41;5096218;28;20484;-19
2022/05/26 07:33:27;;;;;;;0.57;0.55;;;25.30;40.40;;;-147.20;100.00;58430.41;5096391;28;20086;-19
2022/05/26 07:35:53;;;;;;;0.63;0.50;;;25.30;40.30;;;-147.20;100.00;58430.41;5095978;28;20062;-19
2022/05/26 07:41:18;;;;;;;0.40;0.40;;;25.30;40.90;;;-147.20;100.00;58430.41;5096347;28;20082;-19
2022/05/26 07:44:04;;;;;;;0.50;0.50;;;25.40;40.30;;;-147.20;100.00;58430.41;5096519;28;20048;-18
2022/05/26 07:46:30;;;;;;;0.60;0.60;;;25.40;40.20;;;-147.20;100.00;58430.41;5095684;28;20048;-19
2022/05/26 07:48:56;;;;;;;0.50;0.50;;;25.50;40.10;;;-147.20;100.00;58430.41;5096231;28;20048;-18
2022/05/26 07:51:22;;;;;;;0.40;0.40;;;25.50;40.10;;;-147.20;100.00;58430.41;5095751;28;20185;-19
2022/05/26 07:53:48;;;;;;;0.43;0.43;;;25.50;40.00;;;-147.20;100.00;58430.41;5095625;28;20056;-19
2022/05/26 07:56:14;;;;;;;0.52;0.52;;;25.40;40.10;;;-147.20;100.00;58430.41;5095595;28;20043;-19
2022/05/26 07:58:40;;;;;;;0.82;0.60;;;25.30;40.20;;;-147.20;100.00;58430.41;5077668;28;20381;-19
2022/05/26 08:01:07;;;;;;;0.60;0.45;;;25.20;40.30;;;-147.20;100.00;58430.41;5095642;28;20070;-19
2022/05/26 08:03:34;;;;;;;0.50;0.50;;;25.30;40.40;;;-147.20;100.00;58430.41;5095767;28;20052;-19
2022/05/26 08:06:01;;;;;;;0.50;0.50;;;25.20;40.30;;;-147.20;100.00;58430.41;5095586;28;20059;-20
2022/05/26 08:08:26;;;;;;;0.68;0.40;;;25.30;40.90;;;-147.20;100.00;58430.41;5095519;28;20059;-19
2022/05/26 08:10:52;;;;;;;0.60;0.60;;;25.30;40.30;;;-147.20;100.00;58430.41;5095522;28;20051;-19
2022/05/26 08:13:19;;;;;;;0.50;0.50;;;25.30;40.40;;;-147.20;100.00;58430.41;5095521;28;20450;-19
2022/05/26 08:15:45;;;;;;;0.50;0.50;;;25.30;40.40;;;-147.20;100.00;58430.41;5095395;28;20456;-19
2022/05/26 08:18:12;;;;;;;0.57;0.57;;;25.20;40.40;;;-147.20;100.00;58430.41;5095768;28;20051;-19
2022/05/26 08:20:38;;;;;;;0.50;0.50;;;25.20;40.50;;;-147.20;100.00;58430.41;5095323;28;20373;-19
2022/05/26 08:23:04;;;;;;;0.68;0.55;;;25.20;40.50;;;-147.20;100.00;58430.41;5095510;28;20059;-19
2022/05/26 08:25:30;;;;;;;0.60;0.57;;;25.10;40.50;;;-147.20;100.00;58430.41;5095370;28;20048;-19
2022/05/26 08:27:56;;;;;;;0.55;0.55;;;25.10;40.60;;;-147.20;100.00;58430.41;5095204;28;20048;-19
2022/05/26 08:30:22;;;;;;;0.55;0.50;;;25.10;40.60;;;-147.20;100.00;58430.41;5095289;28;20545;-18
2022/05/26 08:32:52;;;;;;;0.50;0.50;;;25.10;40.50;;;-147.20;100.00;58430.41;5095276;28;20138;-19
2022/05/26 08:35:18;;;;;;;0.45;0.45;;;25.10;40.60;;;-147.20;100.00;58430.41;5095233;28;20094;-19
2022/05/26 08:37:44;;;;;;;0.63;0.57;;;25.10;40.60;;;-147.20;100.00;58430.41;5095582;28;20048;-18
2022/05/26 08:40:34;;;;;;;0.50;0.50;;;25.10;40.60;;;-147.20;100.00;58430.41;5094870;28;20541;-19
2022/05/26 08:43:05;;;;;;;0.50;0.50;;;25.10;40.70;;;-147.20;100.00;58430.41;5077060;28;20044;-19
2022/05/26 08:45:38;;;;;;;0.73;0.60;;;25.00;40.70;;;-147.20;100.00;58430.41;5076525;28;20047;-18
2022/05/26 08:48:05;;;;;;;0.40;0.40;;;25.00;40.70;;;-147.20;100.00;58430.41;5077121;28;20475;-19
2022/05/26 08:50:34;;;;;;;1.65;0.50;;;25.00;40.70;;;-147.20;100.00;58430.41;5095246;28;20060;-19
2022/05/26 08:53:17;;;;;;;0.55;0.50;;;25.00;40.70;;;-147.20;100.00;58430.41;5095094;28;20044;-19
2022/05/26 08:55:45;;;;;;;0.93;0.52;;;25.00;40.70;;;-147.20;100.00;58430.41;5077279;28;20116;-19
2022/05/26 08:58:34;;;;;;;0.50;0.50;;;25.00;40.70;;;-147.20;100.00;58430.41;5094711;28;20047;-19
2022/05/26 09:01:03;;;;;;;0.60;0.60;;;25.00;40.80;;;-147.20;100.00;58430.41;5076755;28;20046;-19
2022/05/26 09:03:35;;;;;;;0.40;0.40;;;25.00;41.30;;;-147.20;100.00;58430.41;5094787;28;20056;-18
2022/05/26 09:06:11;;;;;;;0.50;0.50;;;25.00;40.80;;;-147.20;100.00;58430.41;5095350;28;20130;-19
2022/05/26 09:14:02;;;;;;;0.68;0.60;;;25.00;40.70;;;-147.20;100.00;58430.41;5094379;28;20052;-19
2022/05/26 09:16:34;;;;;;;0.40;0.40;;;25.00;40.70;;;-147.20;100.00;58430.41;5094156;28;20052;-19
2022/05/26 09:19:16;;;;;;;0.38;0.38;;;25.00;40.80;;;-147.20;100.00;58430.41;5074604;28;20052;-19
2022/05/26 09:21:44;;;;;;;0.60;0.60;;;25.00;40.80;;;-147.20;100.00;58430.41;5094822;28;20044;-19
2022/05/26 09:24:25;;;;;;;0.60;0.60;;;24.90;40.80;;;-147.20;100.00;58430.41;5094339;28;20101;-19
2022/05/26 09:27:01;;;;;;;0.77;0.77;;;24.90;40.90;;;-147.20;100.00;58430.41;5094377;28;20553;-19
2022/05/26 09:29:34;;;;;;;0.95;0.60;;;24.90;40.90;;;-147.20;100.00;58430.41;5093957;28;20047;-19
2022/05/26 09:32:04;;;;;;;0.55;0.55;;;24.90;40.90;;;-147.20;100.00;58430.41;5094667;28;20093;-19
2022/05/26 09:34:32;;;;;;;0.40;0.40;;;24.90;41.00;;;-147.20;100.00;58430.41;5094570;28;20082;-20
2022/05/26 09:37:04;;;;;;;0.40;0.40;;;24.90;41.00;;;-147.20;100.00;58430.41;5094731;28;20044;-18
2022/05/26 09:39:37;;;;;;;0.30;0.30;;;24.90;41.50;;;-147.20;100.00;58430.41;5094519;28;20072;-19
2022/05/26 09:42:27;;;;;;;0.52;0.52;;;24.90;41.00;;;-147.20;100.00;58430.41;5094789;28;20113;-19
2022/05/26 09:45:03;;;;;;;0.50;0.50;;;24.90;41.00;;;-147.20;100.00;58430.41;5094239;28;20044;-18
2022/05/26 09:47:48;;;;;;;0.60;0.60;;;24.90;40.90;;;-147.20;100.00;58430.41;5094331;28;20090;-19
2022/05/26 09:50:37;;;;;;;0.45;0.40;;;24.90;41.00;;;-147.20;100.00;58430.41;5092680;28;20048;-19
2022/05/26 09:53:08;;;;;;;0.40;0.40;;;24.90;41.00;;;-147.20;100.00;58430.41;5094023;28;20048;-19
2022/05/26 09:55:50;;;;;;;0.50;0.50;;;24.90;41.00;;;-147.20;100.00;58430.41;5075704;28;20552;-19
2022/05/26 09:58:31;;;;;;;0.60;0.60;;;24.90;41.00;;;-147.20;100.00;58430.41;5093862;28;20055;-20
2022/05/26 10:01:00;;;;;;;0.82;0.70;;;24.90;41.00;;;-147.20;100.00;58430.41;5094079;28;20048;-19
2022/05/26 10:04:00;;;;;;;0.57;0.57;;;24.90;41.00;;;-147.20;100.00;58430.41;5094162;28;20096;-18
2022/05/26 10:06:38;;;;;;;0.50;0.50;;;24.90;41.00;;;-147.20;100.00;58430.41;5074125;28;20052;-19
2022/05/26 10:10:08;;;;;;;0.60;0.60;;;24.90;41.00;;;-147.20;100.00;58430.41;5093173;28;20052;-18
2022/05/26 10:13:10;;;;;;;0.43;0.43;;;24.90;41.00;;;-147.20;100.00;58430.41;5031112;28;20144;-19
2022/05/26 10:16:12;;;;;;;0.43;0.43;;;24.80;41.00;;;-147.20;100.00;58430.41;5031165;28;20056;-19
2022/05/26 10:19:16;;;;;;;0.50;0.45;;;24.90;41.00;;;-147.20;100.00;58430.41;5058501;28;20052;-19
2022/05/26 10:21:52;;;;;;;0.50;0.50;;;24.90;40.90;;;-147.20;100.00;58430.41;5093000;28;20377;-19
2022/05/26 10:24:47;;;;;;;0.60;0.60;;;24.90;41.00;;;-147.20;100.00;58430.41;5075416;28;20075;-18
2022/05/26 10:27:43;;;;;;;0.45;0.45;;;24.90;41.00;;;-147.20;100.00;58430.41;5093846;28;20078;-19
2022/05/26 10:30:53;;;;;;;0.40;0.40;;;24.90;41.00;;;-147.20;100.00;58430.41;5093111;28;20052;-19
2022/05/26 10:33:44;;;;;;;0.50;0.50;;;24.80;41.00;;;-147.20;100.00;58430.41;5075269;28;20070;-18
2022/05/26 10:36:46;;;;;;;0.50;0.50;;;24.80;41.00;;;-147.20;100.00;58430.41;5093435;28;20067;-19
2022/05/26 10:39:43;;;;;;;0.70;0.60;;;24.80;41.00;;;-147.20;100.00;58430.41;5074880;28;20060;-19
2022/05/26 10:42:35;;;;;;;0.40;0.40;;;24.80;41.00;;;-147.20;100.00;58430.41;5090706;28;20048;-19
2022/05/26 10:45:30;;;;;;;0.88;0.73;;;24.80;41.00;;;-147.20;100.00;58430.41;5063851;28;20121;-19
2022/05/26 10:48:26;;;;;;;0.40;0.40;;;24.80;41.00;;;-147.20;100.00;58430.41;5073769;28;20141;-19
2022/05/26 10:51:10;;;;;;;0.88;0.52;;;24.80;41.10;;;-147.20;100.00;58430.41;5072956;28;20056;-19
2022/05/26 10:53:58;;;;;;;0.60;0.60;;;24.80;41.10;;;-147.20;100.00;58430.41;5093020;28;20048;-19